Wetterdaten: Dienstag, 24.07.2012
Datum Zeit Temperatur Luftfeuchte Regen Wind Richtung Richtung Taupunkt Windchill Windben
24.07.2012 00:00 10,4 C 87 % 0,0 l/m 0,0 km/h (0 Bft) N-NO 22 8,3 C 9,4 C 0,0 km/h (0 Bft)
24.07.2012 00:05 10,5 C 88 % 0,0 l/m 0,0 km/h (0 Bft) W-SW 247 8,6 C 9,2 C 0,0 km/h (0 Bft)
24.07.2012 00:10 10,0 C 87 % 0,0 l/m 0,0 km/h (0 Bft) N-NO 22 7,9 C 9,2 C 0,0 km/h (0 Bft)
24.07.2012 00:15 10,6 C 88 % 0,0 l/m 0,0 km/h (0 Bft) O-NO 67 8,7 C 9,3 C 0,0 km/h (0 Bft)
24.07.2012 00:20 10,6 C 88 % 0,0 l/m 0,0 km/h (0 Bft) O-SO 112 8,7 C 9,4 C 0,0 km/h (0 Bft)
24.07.2012 00:25 10,0 C 88 % 0,0 l/m 0,0 km/h (0 Bft) N 360 8,1 C 9,2 C 0,0 km/h (0 Bft)
24.07.2012 00:30 10,5 C 88 % 0,0 l/m 0,2 km/h (0 Bft) N-NO 22 8,6 C 9,2 C 1,9 km/h (1 Bft)
24.07.2012 00:35 10,8 C 88 % 0,0 l/m 0,3 km/h (0 Bft) N 360 8,9 C 9,6 C 0,0 km/h (0 Bft)
24.07.2012 00:40 10,8 C 88 % 0,0 l/m 0,3 km/h (0 Bft) NO 45 8,9 C 9,8 C 0,0 km/h (0 Bft)
24.07.2012 00:45 10,7 C 88 % 0,0 l/m 0,0 km/h (0 Bft) N-NO 22 8,8 C 10,0 C 0,0 km/h (0 Bft)
24.07.2012 00:50 10,7 C 88 % 0,0 l/m 0,2 km/h (0 Bft) N-NO 22 8,8 C 9,9 C 2,3 km/h (1 Bft)
24.07.2012 00:55 10,5 C 87 % 0,0 l/m 0,3 km/h (0 Bft) NO 45 8,4 C 9,7 C 1,6 km/h (1 Bft)
24.07.2012 01:00 10,6 C 87 % 0,0 l/m 0,5 km/h (0 Bft) NO 45 8,5 C 9,5 C 2,7 km/h (1 Bft)
24.07.2012 01:05 10,6 C 88 % 0,0 l/m 0,8 km/h (0 Bft) NO 45 8,7 C 9,6 C 2,1 km/h (1 Bft)
24.07.2012 01:10 10,4 C 88 % 0,0 l/m 0,8 km/h (0 Bft) O-NO 67 8,5 C 9,7 C 2,7 km/h (1 Bft)
24.07.2012 01:15 10,1 C 87 % 0,0 l/m 0,2 km/h (0 Bft) S 180 8,0 C 9,5 C 0,0 km/h (0 Bft)
24.07.2012 01:20 9,5 C 87 % 0,0 l/m 0,0 km/h (0 Bft) W-SW 247 7,4 C 9,2 C 0,0 km/h (0 Bft)
24.07.2012 01:25 9,3 C 88 % 0,0 l/m 0,0 km/h (0 Bft) N 360 7,4 C 9,0 C 0,0 km/h (0 Bft)
24.07.2012 01:30 9,2 C 88 % 0,0 l/m 0,0 km/h (0 Bft) N-NW 337 7,3 C 8,8 C 0,0 km/h (0 Bft)
24.07.2012 01:35 9,2 C 89 % 0,0 l/m 0,0 km/h (0 Bft) O-SO 112 7,5 C 8,7 C 0,0 km/h (0 Bft)
24.07.2012 01:40 9,0 C 89 % 0,0 l/m 0,0 km/h (0 Bft) S-SW 202 7,3 C 8,6 C 0,0 km/h (0 Bft)
24.07.2012 01:45 9,3 C 89 % 0,0 l/m 0,2 km/h (0 Bft) NO 45 7,6 C 8,6 C 0,0 km/h (0 Bft)
24.07.2012 01:50 9,3 C 89 % 0,0 l/m 0,2 km/h (0 Bft) O-NO 67 7,6 C 8,6 C 0,0 km/h (0 Bft)
24.07.2012 01:55 9,4 C 90 % 0,0 l/m 0,0 km/h (0 Bft) W-SW 247 7,8 C 8,7 C 0,0 km/h (0 Bft)
24.07.2012 02:00 9,0 C 90 % 0,0 l/m 0,0 km/h (0 Bft) N 360 7,4 C 8,6 C 0,0 km/h (0 Bft)
24.07.2012 02:05 8,9 C 90 % 0,0 l/m 0,0 km/h (0 Bft) S-SO 157 7,4 C 8,5 C 0,0 km/h (0 Bft)
24.07.2012 02:10 8,7 C 90 % 0,0 l/m 0,0 km/h (0 Bft) W-NW 292 7,2 C 8,3 C 0,0 km/h (0 Bft)
24.07.2012 02:15 8,6 C 90 % 0,0 l/m 0,0 km/h (0 Bft) W-NW 292 7,1 C 8,2 C 0,0 km/h (0 Bft)
24.07.2012 02:20 8,5 C 90 % 0,0 l/m 0,0 km/h (0 Bft) W-SW 247 7,0 C 8,3 C 0,0 km/h (0 Bft)
24.07.2012 02:25 8,5 C 90 % 0,0 l/m 0,0 km/h (0 Bft) N-NO 22 7,0 C 8,1 C 0,0 km/h (0 Bft)
24.07.2012 02:30 8,5 C 90 % 0,0 l/m 0,0 km/h (0 Bft) N-NO 22 7,0 C 8,1 C 0,0 km/h (0 Bft)
24.07.2012 02:35 8,6 C 90 % 0,0 l/m 0,0 km/h (0 Bft) N-NW 337 7,1 C 8,2 C 0,0 km/h (0 Bft)
24.07.2012 02:40 8,5 C 90 % 0,0 l/m 0,0 km/h (0 Bft) W 270 7,0 C 8,3 C 0,0 km/h (0 Bft)
24.07.2012 02:45 8,4 C 90 % 0,0 l/m 0,0 km/h (0 Bft) N-NO 22 6,9 C 8,2 C 0,0 km/h (0 Bft)
24.07.2012 02:50 8,4 C 90 % 0,0 l/m 0,0 km/h (0 Bft) SO 135 6,9 C 8,2 C 0,0 km/h (0 Bft)
24.07.2012 02:55 8,3 C 90 % 0,0 l/m 0,0 km/h (0 Bft) N-NO 22 6,8 C 8,1 C 0,0 km/h (0 Bft)
24.07.2012 03:00 8,2 C 90 % 0,0 l/m 0,0 km/h (0 Bft) W-SW 247 6,7 C 8,0 C 0,0 km/h (0 Bft)
24.07.2012 03:05 8,0 C 90 % 0,0 l/m 0,0 km/h (0 Bft) NO 45 6,5 C 7,8 C 0,0 km/h (0 Bft)
24.07.2012 03:10 8,1 C 90 % 0,0 l/m 0,0 km/h (0 Bft) NO 45 6,6 C 7,7 C 0,0 km/h (0 Bft)
24.07.2012 03:15 8,1 C 90 % 0,0 l/m 0,0 km/h (0 Bft) W-NW 292 6,6 C 7,6 C 0,0 km/h (0 Bft)
24.07.2012 03:20 7,8 C 90 % 0,0 l/m 0,0 km/h (0 Bft) SO 135 6,3 C 7,6 C 0,0 km/h (0 Bft)
24.07.2012 03:25 7,6 C 90 % 0,0 l/m 0,0 km/h (0 Bft) S-SW 202 6,1 C 7,5 C 0,0 km/h (0 Bft)
24.07.2012 03:30 7,7 C 90 % 0,0 l/m 0,0 km/h (0 Bft) N-NW 337 6,2 C 7,4 C 0,0 km/h (0 Bft)
24.07.2012 03:35 7,6 C 90 % 0,0 l/m 0,0 km/h (0 Bft) W-NW 292 6,1 C 7,5 C 0,0 km/h (0 Bft)
24.07.2012 03:40 7,7 C 90 % 0,0 l/m 0,0 km/h (0 Bft) N 360 6,2 C 7,5 C 0,0 km/h (0 Bft)
24.07.2012 03:45 7,9 C 91 % 0,0 l/m 0,0 km/h (0 Bft) W 270 6,5 C 7,5 C 0,0 km/h (0 Bft)
24.07.2012 03:50 7,8 C 91 % 0,0 l/m 0,0 km/h (0 Bft) O 90 6,4 C 7,5 C 0,0 km/h (0 Bft)
24.07.2012 03:55 8,1 C 91 % 0,0 l/m 0,2 km/h (0 Bft) N-NW 337 6,7 C 7,6 C 2,1 km/h (1 Bft)
24.07.2012 04:00 8,2 C 92 % 0,0 l/m 0,5 km/h (0 Bft) O 90 7,0 C 7,8 C 1,8 km/h (1 Bft)
24.07.2012 04:05 7,9 C 92 % 0,0 l/m 0,6 km/h (0 Bft) O 90 6,7 C 7,9 C 0,0 km/h (0 Bft)
24.07.2012 04:10 8,1 C 92 % 0,0 l/m 0,2 km/h (0 Bft) W-NW 292 6,9 C 7,8 C 0,0 km/h (0 Bft)
24.07.2012 04:15 7,8 C 92 % 0,0 l/m 0,0 km/h (0 Bft) N-NO 22 6,6 C 7,6 C 0,0 km/h (0 Bft)
24.07.2012 04:20 7,8 C 92 % 0,0 l/m 0,0 km/h (0 Bft) W-SW 247 6,6 C 7,6 C 0,0 km/h (0 Bft)
24.07.2012 04:25 7,9 C 92 % 0,0 l/m 0,0 km/h (0 Bft) N-NW 337 6,7 C 7,5 C 0,0 km/h (0 Bft)
24.07.2012 04:30 7,6 C 92 % 0,0 l/m 0,0 km/h (0 Bft) NO 45 6,4 C 7,4 C 0,0 km/h (0 Bft)
24.07.2012 04:35 7,7 C 92 % 0,0 l/m 0,0 km/h (0 Bft) N 360 6,5 C 7,3 C 0,0 km/h (0 Bft)
24.07.2012 04:40 7,6 C 92 % 0,0 l/m 0,0 km/h (0 Bft) O-SO 112 6,4 C 7,3 C 0,0 km/h (0 Bft)
24.07.2012 04:45 7,5 C 92 % 0,0 l/m 0,0 km/h (0 Bft) O-SO 112 6,3 C 7,3 C 0,0 km/h (0 Bft)
24.07.2012 04:50 7,6 C 92 % 0,0 l/m 0,0 km/h (0 Bft) S 180 6,4 C 7,3 C 0,0 km/h (0 Bft)
24.07.2012 04:55 7,3 C 92 % 0,0 l/m 0,0 km/h (0 Bft) S 180 6,1 C 7,3 C 0,0 km/h (0 Bft)
24.07.2012 05:00 7,3 C 92 % 0,0 l/m 0,0 km/h (0 Bft) W-NW 292 6,1 C 7,2 C 0,0 km/h (0 Bft)
24.07.2012 05:05 7,4 C 92 % 0,0 l/m 0,0 km/h (0 Bft) W-SW 247 6,2 C 7,2 C 0,0 km/h (0 Bft)
24.07.2012 05:10 7,8 C 92 % 0,0 l/m 0,0 km/h (0 Bft) N-NO 22 6,6 C 7,2 C 0,0 km/h (0 Bft)
24.07.2012 05:15 8,0 C 92 % 0,0 l/m 0,0 km/h (0 Bft) N 360 6,8 C 7,6 C 0,0 km/h (0 Bft)
24.07.2012 05:20 8,4 C 92 % 0,0 l/m 0,0 km/h (0 Bft) N-NW 337 7,2 C 7,6 C 0,0 km/h (0 Bft)
24.07.2012 05:25 7,8 C 93 % 0,0 l/m 0,0 km/h (0 Bft) S 180 6,7 C 7,6 C 0,0 km/h (0 Bft)
24.07.2012 05:30 7,5 C 93 % 0,0 l/m 0,0 km/h (0 Bft) N-NO 22 6,4 C 7,3 C 0,0 km/h (0 Bft)
24.07.2012 05:35 7,6 C 93 % 0,0 l/m 0,3 km/h (0 Bft) W 270 6,5 C 7,3 C 2,3 km/h (1 Bft)
24.07.2012 05:40 7,4 C 92 % 0,0 l/m 0,3 km/h (0 Bft) O-SO 112 6,2 C 7,3 C 3,5 km/h (1 Bft)
24.07.2012 05:45 7,9 C 93 % 0,0 l/m 0,2 km/h (0 Bft) N-NO 22 6,8 C 7,3 C 0,0 km/h (0 Bft)
24.07.2012 05:50 7,9 C 93 % 0,0 l/m 0,0 km/h (0 Bft) O-NO 67 6,8 C 7,3 C 0,0 km/h (0 Bft)
24.07.2012 05:55 8,8 C 93 % 0,0 l/m 0,6 km/h (0 Bft) NO 45 7,7 C 8,0 C 2,9 km/h (1 Bft)
24.07.2012 06:00 8,7 C 93 % 0,0 l/m 0,8 km/h (0 Bft) S-SW 202 7,6 C 8,2 C 0,0 km/h (0 Bft)
24.07.2012 06:05 8,2 C 93 % 0,0 l/m 0,3 km/h (0 Bft) NW 315 7,1 C 8,2 C 1,6 km/h (1 Bft)
24.07.2012 06:10 8,1 C 93 % 0,0 l/m 0,0 km/h (0 Bft) S-SO 157 7,0 C 8,3 C 0,0 km/h (0 Bft)
24.07.2012 06:15 7,9 C 93 % 0,0 l/m 0,2 km/h (0 Bft) S 180 6,8 C 8,2 C 0,0 km/h (0 Bft)
24.07.2012 06:20 8,0 C 93 % 0,0 l/m 0,2 km/h (0 Bft) N 360 6,9 C 8,2 C 0,0 km/h (0 Bft)
24.07.2012 06:25 8,3 C 93 % 0,0 l/m 0,0 km/h (0 Bft) N-NW 337 7,2 C 8,2 C 0,0 km/h (0 Bft)
24.07.2012 06:30 8,5 C 93 % 0,0 l/m 0,0 km/h (0 Bft) N-NW 337 7,4 C 8,4 C 0,0 km/h (0 Bft)
24.07.2012 06:35 8,4 C 93 % 0,0 l/m 0,0 km/h (0 Bft) W-NW 292 7,3 C 8,5 C 0,0 km/h (0 Bft)
24.07.2012 06:40 8,5 C 93 % 0,0 l/m 0,0 km/h (0 Bft) S-SW 202 7,4 C 9,2 C 0,0 km/h (0 Bft)
24.07.2012 06:45 10,3 C 92 % 0,0 l/m 0,0 km/h (0 Bft) W-SW 247 9,1 C 10,5 C 0,0 km/h (0 Bft)
24.07.2012 06:50 10,6 C 92 % 0,0 l/m 0,0 km/h (0 Bft) W-SW 247 9,4 C 10,9 C 0,0 km/h (0 Bft)
24.07.2012 06:55 11,5 C 91 % 0,0 l/m 0,0 km/h (0 Bft) O-SO 112 10,1 C 11,6 C 0,0 km/h (0 Bft)
24.07.2012 07:00 12,0 C 91 % 0,0 l/m 0,0 km/h (0 Bft) SW 225 10,6 C 11,9 C 0,0 km/h (0 Bft)
24.07.2012 07:05 12,1 C 89 % 0,0 l/m 0,0 km/h (0 Bft) N 360 10,3 C 12,6 C 0,0 km/h (0 Bft)
24.07.2012 07:10 13,8 C 88 % 0,0 l/m 0,0 km/h (0 Bft) O-NO 67 11,8 C 13,1 C 0,0 km/h (0 Bft)
24.07.2012 07:15 13,9 C 86 % 0,0 l/m 0,0 km/h (0 Bft) NO 45 11,6 C 14,5 C 0,0 km/h (0 Bft)
24.07.2012 07:20 14,3 C 82 % 0,0 l/m 0,0 km/h (0 Bft) SO 135 11,3 C 14,9 C 0,0 km/h (0 Bft)
24.07.2012 07:25 14,8 C 77 % 0,0 l/m 0,0 km/h (0 Bft) O-SO 112 10,8 C 15,6 C 0,0 km/h (0 Bft)
24.07.2012 07:30 15,2 C 75 % 0,0 l/m 0,0 km/h (0 Bft) S 180 10,8 C 16,2 C 0,0 km/h (0 Bft)
24.07.2012 07:35 14,8 C 72 % 0,0 l/m 0,0 km/h (0 Bft) N-NO 22 9,8 C 16,4 C 0,0 km/h (0 Bft)
24.07.2012 07:40 16,1 C 72 % 0,0 l/m 0,0 km/h (0 Bft) N-NW 337 11,0 C 16,6 C 0,0 km/h (0 Bft)
24.07.2012 07:45 17,7 C 71 % 0,0 l/m 0,0 km/h (0 Bft) SW 225 12,4 C 18,0 C 0,0 km/h (0 Bft)
24.07.2012 07:50 18,0 C 69 % 0,0 l/m 0,0 km/h (0 Bft) N-NW 337 12,2 C 18,8 C 0,0 km/h (0 Bft)
24.07.2012 07:55 19,1 C 67 % 0,0 l/m 0,0 km/h (0 Bft) N-NW 337 12,8 C 20,1 C 0,0 km/h (0 Bft)
24.07.2012 08:00 19,4 C 66 % 0,0 l/m 0,0 km/h (0 Bft) SO 135 12,9 C 20,9 C 0,0 km/h (0 Bft)
24.07.2012 08:05 19,0 C 63 % 0,0 l/m 0,0 km/h (0 Bft) N 360 11,8 C 21,7 C 0,0 km/h (0 Bft)
24.07.2012 08:10 19,5 C 64 % 0,0 l/m 0,0 km/h (0 Bft) O 90 12,5 C 22,1 C 0,0 km/h (0 Bft)
24.07.2012 08:15 20,2 C 62 % 0,0 l/m 0,2 km/h (0 Bft) N-NW 337 12,7 C 22,6 C 1,6 km/h (1 Bft)
24.07.2012 08:20 20,6 C 63 % 0,0 l/m 0,2 km/h (0 Bft) N-NW 337 13,3 C 22,6 C 0,0 km/h (0 Bft)
24.07.2012 08:25 21,1 C 62 % 0,0 l/m 0,2 km/h (0 Bft) W-SW 247 13,5 C 23,2 C 0,0 km/h (0 Bft)
24.07.2012 08:30 21,3 C 62 % 0,0 l/m 0,2 km/h (0 Bft) W-SW 247 13,7 C 23,6 C 1,9 km/h (1 Bft)
24.07.2012 08:35 22,2 C 56 % 0,0 l/m 0,8 km/h (0 Bft) W-SW 247 13,5 C 23,7 C 0,0 km/h (0 Bft)
24.07.2012 08:40 21,7 C 56 % 0,0 l/m 1,3 km/h (1 Bft) S 180 13,1 C 24,0 C 1,8 km/h (1 Bft)
24.07.2012 08:45 21,3 C 54 % 0,0 l/m 1,0 km/h (0 Bft) SW 225 13,9 C 24,4 C 1,6 km/h (1 Bft)
24.07.2012 08:50 21,1 C 55 % 0,0 l/m 0,5 km/h (0 Bft) O 90 13,4 C 24,9 C 0,0 km/h (0 Bft)
24.07.2012 08:55 20,8 C 53 % 0,0 l/m 0,8 km/h (0 Bft) O-SO 112 13,4 C 25,4 C 2,3 km/h (1 Bft)
24.07.2012 09:00 20,8 C 54 % 0,0 l/m 0,6 km/h (0 Bft) O-NO 67 13,5 C 25,6 C 0,0 km/h (0 Bft)
24.07.2012 09:05 21,2 C 50 % 0,0 l/m 0,8 km/h (0 Bft) S-SW 202 12,9 C 26,2 C 0,0 km/h (0 Bft)
24.07.2012 09:10 21,3 C 52 % 0,0 l/m 1,0 km/h (0 Bft) S-SO 157 13,0 C 26,1 C 1,8 km/h (1 Bft)
24.07.2012 09:15 21,2 C 53 % 0,0 l/m 0,6 km/h (0 Bft) N 360 12,5 C 26,1 C 0,0 km/h (0 Bft)
24.07.2012 09:20 21,1 C 57 % 0,0 l/m 0,2 km/h (0 Bft) S-SO 157 13,6 C 25,9 C 0,0 km/h (0 Bft)
24.07.2012 09:25 21,3 C 49 % 0,0 l/m 0,3 km/h (0 Bft) W-SW 247 12,0 C 25,9 C 2,6 km/h (1 Bft)
24.07.2012 09:30 21,6 C 51 % 0,0 l/m 0,3 km/h (0 Bft) S 180 13,0 C 26,3 C 0,0 km/h (0 Bft)
24.07.2012 09:35 21,9 C 48 % 0,0 l/m 0,3 km/h (0 Bft) N 360 11,9 C 27,4 C 2,3 km/h (1 Bft)
24.07.2012 09:40 22,0 C 52 % 0,0 l/m 0,5 km/h (0 Bft) W 270 13,4 C 27,4 C 2,3 km/h (1 Bft)
24.07.2012 09:45 22,4 C 49 % 0,0 l/m 1,3 km/h (1 Bft) O-SO 112 13,8 C 27,6 C 6,1 km/h (2 Bft)
24.07.2012 09:50 22,7 C 48 % 0,0 l/m 1,9 km/h (1 Bft) S 180 14,1 C 27,3 C 2,7 km/h (1 Bft)
24.07.2012 09:55 22,9 C 49 % 0,0 l/m 2,6 km/h (1 Bft) SO 135 14,1 C 27,0 C 2,6 km/h (1 Bft)
24.07.2012 10:00 23,2 C 48 % 0,0 l/m 2,3 km/h (1 Bft) S-SW 202 14,1 C 27,2 C 2,7 km/h (1 Bft)
24.07.2012 10:05 23,4 C 48 % 0,0 l/m 2,3 km/h (1 Bft) SO 135 13,9 C 27,2 C 4,3 km/h (1 Bft)
24.07.2012 10:10 23,6 C 46 % 0,0 l/m 2,3 km/h (1 Bft) N-NO 22 13,5 C 27,2 C 0,0 km/h (0 Bft)
24.07.2012 10:15 23,9 C 47 % 0,0 l/m 2,1 km/h (1 Bft) W 270 13,9 C 27,4 C 2,9 km/h (1 Bft)
24.07.2012 10:20 23,9 C 48 % 0,0 l/m 1,9 km/h (1 Bft) W-SW 247 13,6 C 27,5 C 6,4 km/h (2 Bft)
24.07.2012 10:25 24,1 C 48 % 0,0 l/m 2,9 km/h (1 Bft) S-SW 202 13,9 C 27,6 C 7,1 km/h (2 Bft)
24.07.2012 10:30 24,3 C 43 % 0,0 l/m 3,5 km/h (1 Bft) SO 135 12,6 C 27,1 C 8,4 km/h (2 Bft)
24.07.2012 10:35 24,7 C 40 % 0,0 l/m 4,7 km/h (1 Bft) S 180 11,3 C 26,5 C 5,8 km/h (2 Bft)
24.07.2012 10:40 24,7 C 44 % 0,0 l/m 4,5 km/h (1 Bft) S-SO 157 12,3 C 26,2 C 3,7 km/h (1 Bft)
24.07.2012 10:45 24,9 C 46 % 0,0 l/m 4,0 km/h (1 Bft) SO 135 13,2 C 26,6 C 3,7 km/h (1 Bft)
24.07.2012 10:50 25,0 C 44 % 0,0 l/m 3,7 km/h (1 Bft) O-NO 67 12,3 C 26,6 C 8,5 km/h (2 Bft)
24.07.2012 10:55 25,3 C 45 % 0,0 l/m 2,9 km/h (1 Bft) O-NO 67 12,5 C 27,3 C 3,2 km/h (1 Bft)
24.07.2012 11:00 25,4 C 46 % 0,0 l/m 2,3 km/h (1 Bft) S-SO 157 13,1 C 27,9 C 3,9 km/h (1 Bft)
24.07.2012 11:05 25,3 C 44 % 0,0 l/m 3,1 km/h (1 Bft) NW 315 12,2 C 27,7 C 2,7 km/h (1 Bft)
24.07.2012 11:10 24,8 C 46 % 0,0 l/m 2,9 km/h (1 Bft) S-SW 202 12,4 C 27,7 C 6,4 km/h (2 Bft)
24.07.2012 11:15 25,4 C 45 % 0,0 l/m 2,4 km/h (1 Bft) S 180 12,6 C 27,7 C 3,7 km/h (1 Bft)
24.07.2012 11:20 25,7 C 45 % 0,0 l/m 2,7 km/h (1 Bft) W-SW 247 12,9 C 28,1 C 2,9 km/h (1 Bft)
24.07.2012 11:25 25,4 C 44 % 0,0 l/m 3,1 km/h (1 Bft) S-SW 202 12,2 C 28,1 C 3,7 km/h (1 Bft)
24.07.2012 11:30 25,7 C 47 % 0,0 l/m 3,2 km/h (1 Bft) S 180 13,5 C 28,0 C 3,2 km/h (1 Bft)
24.07.2012 11:35 25,5 C 43 % 0,0 l/m 2,3 km/h (1 Bft) S-SW 202 12,0 C 28,1 C 0,0 km/h (0 Bft)
24.07.2012 11:40 25,9 C 43 % 0,0 l/m 2,3 km/h (1 Bft) S 180 12,3 C 28,5 C 7,1 km/h (2 Bft)
24.07.2012 11:45 25,9 C 42 % 0,0 l/m 3,4 km/h (1 Bft) W 270 12,0 C 28,1 C 6,0 km/h (2 Bft)
24.07.2012 11:50 25,4 C 43 % 0,0 l/m 4,5 km/h (1 Bft) W-SW 247 11,9 C 27,5 C 9,5 km/h (2 Bft)
24.07.2012 11:55 25,8 C 45 % 0,0 l/m 5,1 km/h (1 Bft) S 180 13,0 C 27,2 C 6,1 km/h (2 Bft)
24.07.2012 12:00 25,9 C 44 % 0,0 l/m 4,2 km/h (1 Bft) S-SW 202 12,7 C 27,2 C 3,5 km/h (1 Bft)
24.07.2012 12:05 26,3 C 41 % 0,0 l/m 3,2 km/h (1 Bft) S 180 12,0 C 27,5 C 3,5 km/h (1 Bft)
24.07.2012 12:10 26,4 C 41 % 0,0 l/m 3,4 km/h (1 Bft) O-SO 112 12,1 C 27,9 C 5,3 km/h (1 Bft)
24.07.2012 12:15 26,8 C 41 % 0,0 l/m 3,2 km/h (1 Bft) SW 225 12,4 C 27,9 C 3,7 km/h (1 Bft)
24.07.2012 12:20 27,0 C 40 % 0,0 l/m 2,6 km/h (1 Bft) O-SO 112 12,2 C 28,2 C 1,8 km/h (1 Bft)
24.07.2012 12:25 26,7 C 42 % 0,0 l/m 1,8 km/h (1 Bft) S-SO 157 12,7 C 28,9 C 3,9 km/h (1 Bft)
24.07.2012 12:30 26,6 C 43 % 0,0 l/m 2,6 km/h (1 Bft) SO 135 13,0 C 28,7 C 2,6 km/h (1 Bft)
24.07.2012 12:35 26,7 C 42 % 0,0 l/m 3,9 km/h (1 Bft) W-SW 247 12,7 C 28,3 C 4,3 km/h (1 Bft)
24.07.2012 12:40 26,1 C 44 % 0,0 l/m 2,9 km/h (1 Bft) S-SW 202 12,9 C 28,3 C 3,9 km/h (1 Bft)
24.07.2012 12:45 26,4 C 46 % 0,0 l/m 2,1 km/h (1 Bft) S 180 13,8 C 28,7 C 4,7 km/h (1 Bft)
24.07.2012 12:50 26,4 C 44 % 0,0 l/m 3,2 km/h (1 Bft) S 180 13,1 C 28,4 C 3,4 km/h (1 Bft)
24.07.2012 12:55 26,0 C 46 % 0,0 l/m 3,5 km/h (1 Bft) S 180 13,5 C 28,6 C 6,6 km/h (2 Bft)
24.07.2012 13:00 26,2 C 44 % 0,0 l/m 3,7 km/h (1 Bft) S-SO 157 13,0 C 28,3 C 5,6 km/h (1 Bft)
24.07.2012 13:05 26,9 C 42 % 0,0 l/m 4,2 km/h (1 Bft) W-SW 247 12,9 C 28,3 C 3,9 km/h (1 Bft)
24.07.2012 13:10 26,1 C 45 % 0,0 l/m 2,6 km/h (1 Bft) N-NW 337 13,2 C 28,5 C 0,0 km/h (0 Bft)
24.07.2012 13:15 26,9 C 46 % 0,0 l/m 1,9 km/h (1 Bft) O-SO 112 14,3 C 29,3 C 6,6 km/h (2 Bft)
24.07.2012 13:20 26,8 C 45 % 0,0 l/m 3,1 km/h (1 Bft) S-SW 202 13,9 C 29,0 C 4,7 km/h (1 Bft)
24.07.2012 13:25 26,4 C 46 % 0,0 l/m 3,7 km/h (1 Bft) S-SW 202 13,8 C 28,8 C 6,0 km/h (2 Bft)
24.07.2012 13:30 26,3 C 44 % 0,0 l/m 3,5 km/h (1 Bft) O-SO 112 13,1 C 28,5 C 3,2 km/h (1 Bft)
24.07.2012 13:35 26,1 C 46 % 0,0 l/m 3,5 km/h (1 Bft) N 360 13,6 C 28,2 C 1,9 km/h (1 Bft)
24.07.2012 13:40 26,8 C 45 % 0,0 l/m 2,7 km/h (1 Bft) SO 135 13,9 C 28,4 C 6,1 km/h (2 Bft)
24.07.2012 13:45 26,2 C 45 % 0,0 l/m 2,9 km/h (1 Bft) S-SW 202 13,3 C 28,3 C 5,0 km/h (1 Bft)
24.07.2012 13:50 26,7 C 46 % 0,0 l/m 3,5 km/h (1 Bft) O-SO 112 14,1 C 28,5 C 5,3 km/h (1 Bft)
24.07.2012 13:55 27,1 C 45 % 0,0 l/m 3,4 km/h (1 Bft) SO 135 14,1 C 29,0 C 3,5 km/h (1 Bft)
24.07.2012 14:00 27,2 C 44 % 0,0 l/m 4,0 km/h (1 Bft) SO 135 13,9 C 28,8 C 4,8 km/h (1 Bft)
24.07.2012 14:05 26,8 C 45 % 0,0 l/m 4,7 km/h (1 Bft) S-SO 157 13,9 C 28,7 C 6,8 km/h (2 Bft)
24.07.2012 14:10 27,0 C 45 % 0,0 l/m 4,3 km/h (1 Bft) SO 135 14,0 C 28,7 C 7,7 km/h (2 Bft)
24.07.2012 14:15 26,9 C 47 % 0,0 l/m 4,2 km/h (1 Bft) S-SO 157 14,6 C 28,7 C 5,1 km/h (1 Bft)
24.07.2012 14:20 27,2 C 46 % 0,0 l/m 4,2 km/h (1 Bft) S-SW 202 14,6 C 28,7 C 3,9 km/h (1 Bft)
24.07.2012 14:25 27,5 C 45 % 0,0 l/m 3,4 km/h (1 Bft) S-SO 157 14,5 C 29,0 C 3,4 km/h (1 Bft)
24.07.2012 14:30 26,9 C 45 % 0,0 l/m 3,4 km/h (1 Bft) SO 135 13,9 C 29,2 C 5,0 km/h (1 Bft)
24.07.2012 14:35 26,2 C 45 % 0,0 l/m 4,0 km/h (1 Bft) SO 135 13,3 C 28,7 C 1,9 km/h (1 Bft)
24.07.2012 14:40 27,2 C 44 % 0,0 l/m 4,0 km/h (1 Bft) S-SW 202 13,9 C 29,1 C 7,7 km/h (2 Bft)
24.07.2012 14:45 26,7 C 44 % 0,0 l/m 4,2 km/h (1 Bft) S-SW 202 13,4 C 28,7 C 3,7 km/h (1 Bft)
24.07.2012 14:50 26,9 C 44 % 0,0 l/m 5,5 km/h (1 Bft) S-SW 202 13,6 C 28,7 C 11,7 km/h (2 Bft)
24.07.2012 14:55 27,0 C 46 % 0,0 l/m 5,0 km/h (1 Bft) S-SW 202 14,4 C 28,7 C 7,1 km/h (2 Bft)
24.07.2012 15:00 27,2 C 45 % 0,0 l/m 4,7 km/h (1 Bft) S 180 14,2 C 28,8 C 12,2 km/h (2 Bft)
24.07.2012 15:05 27,4 C 46 % 0,0 l/m 3,2 km/h (1 Bft) S-SW 202 14,7 C 29,3 C 6,6 km/h (2 Bft)
24.07.2012 15:10 27,5 C 44 % 0,0 l/m 3,7 km/h (1 Bft) S 180 14,1 C 29,3 C 6,3 km/h (2 Bft)
24.07.2012 15:15 27,0 C 45 % 0,0 l/m 4,3 km/h (1 Bft) W-SW 247 14,0 C 29,2 C 5,0 km/h (1 Bft)
24.07.2012 15:20 26,8 C 46 % 0,0 l/m 3,1 km/h (1 Bft) NO 45 14,2 C 29,4 C 0,0 km/h (0 Bft)
24.07.2012 15:25 27,1 C 45 % 0,0 l/m 2,6 km/h (1 Bft) O-SO 112 14,1 C 30,0 C 0,0 km/h (0 Bft)
24.07.2012 15:30 27,8 C 46 % 0,0 l/m 2,6 km/h (1 Bft) S 180 15,1 C 30,1 C 3,7 km/h (1 Bft)
24.07.2012 15:35 27,6 C 45 % 0,0 l/m 2,4 km/h (1 Bft) S 180 14,6 C 30,3 C 4,5 km/h (1 Bft)
24.07.2012 15:40 27,5 C 44 % 0,0 l/m 2,9 km/h (1 Bft) W-SW 247 14,1 C 30,4 C 4,3 km/h (1 Bft)
24.07.2012 15:45 26,9 C 46 % 0,0 l/m 3,5 km/h (1 Bft) N-NW 337 14,3 C 30,0 C 0,0 km/h (0 Bft)
24.07.2012 15:50 27,3 C 46 % 0,0 l/m 3,2 km/h (1 Bft) O-SO 112 14,6 C 30,2 C 1,8 km/h (1 Bft)
24.07.2012 15:55 27,0 C 46 % 0,0 l/m 3,1 km/h (1 Bft) W-SW 247 14,4 C 30,2 C 4,3 km/h (1 Bft)
24.07.2012 16:00 27,1 C 45 % 0,0 l/m 3,4 km/h (1 Bft) W-NW 292 14,1 C 30,1 C 2,4 km/h (1 Bft)
24.07.2012 16:05 26,8 C 44 % 0,0 l/m 4,2 km/h (1 Bft) W-NW 292 13,5 C 29,7 C 3,2 km/h (1 Bft)
24.07.2012 16:10 27,1 C 47 % 0,0 l/m 4,5 km/h (1 Bft) S-SW 202 14,8 C 29,5 C 6,6 km/h (2 Bft)
24.07.2012 16:15 26,5 C 46 % 0,0 l/m 3,4 km/h (1 Bft) N 360 13,9 C 29,8 C 2,9 km/h (1 Bft)
24.07.2012 16:20 26,8 C 48 % 0,0 l/m 2,4 km/h (1 Bft) N-NW 337 14,9 C 30,5 C 1,9 km/h (1 Bft)
24.07.2012 16:25 27,0 C 44 % 0,0 l/m 2,6 km/h (1 Bft) W 270 13,7 C 30,7 C 3,5 km/h (1 Bft)
24.07.2012 16:30 26,5 C 46 % 0,0 l/m 3,2 km/h (1 Bft) SW 225 13,9 C 30,7 C 5,8 km/h (2 Bft)
24.07.2012 16:35 26,6 C 44 % 0,0 l/m 3,1 km/h (1 Bft) W-NW 292 13,3 C 30,7 C 5,0 km/h (1 Bft)
24.07.2012 16:40 26,4 C 46 % 0,0 l/m 2,9 km/h (1 Bft) W-NW 292 13,8 C 30,9 C 5,1 km/h (1 Bft)
24.07.2012 16:45 25,7 C 48 % 0,0 l/m 3,9 km/h (1 Bft) N-NW 337 13,9 C 30,1 C 3,1 km/h (1 Bft)
24.07.2012 16:50 25,4 C 47 % 0,0 l/m 4,8 km/h (1 Bft) NW 315 13,3 C 29,8 C 4,0 km/h (1 Bft)
24.07.2012 16:55 25,2 C 49 % 0,0 l/m 3,1 km/h (1 Bft) W 270 13,7 C 30,1 C 2,3 km/h (1 Bft)
24.07.2012 17:00 25,1 C 49 % 0,0 l/m 2,4 km/h (1 Bft) N 360 13,6 C 30,3 C 0,0 km/h (0 Bft)
24.07.2012 17:05 25,0 C 52 % 0,0 l/m 1,6 km/h (1 Bft) S 180 14,4 C 31,1 C 1,9 km/h (1 Bft)
24.07.2012 17:10 24,8 C 51 % 0,0 l/m 1,9 km/h (1 Bft) N-NO 22 14,0 C 31,1 C 3,5 km/h (1 Bft)
24.07.2012 17:15 24,6 C 50 % 0,0 l/m 2,4 km/h (1 Bft) N-NO 22 13,5 C 30,9 C 2,7 km/h (1 Bft)
24.07.2012 17:20 24,6 C 51 % 0,0 l/m 1,8 km/h (1 Bft) O 90 13,8 C 31,1 C 2,6 km/h (1 Bft)
24.07.2012 17:25 24,7 C 53 % 0,0 l/m 1,8 km/h (1 Bft) W-NW 292 14,5 C 31,5 C 2,9 km/h (1 Bft)
24.07.2012 17:30 24,8 C 53 % 0,0 l/m 2,1 km/h (1 Bft) W-SW 247 14,6 C 31,5 C 3,9 km/h (1 Bft)
24.07.2012 17:35 24,7 C 55 % 0,0 l/m 2,1 km/h (1 Bft) SW 225 15,0 C 31,5 C 4,7 km/h (1 Bft)
24.07.2012 17:40 24,7 C 53 % 0,0 l/m 2,3 km/h (1 Bft) W-SW 247 14,5 C 31,3 C 2,7 km/h (1 Bft)
24.07.2012 17:45 24,8 C 55 % 0,0 l/m 2,4 km/h (1 Bft) SO 135 15,1 C 31,4 C 2,1 km/h (1 Bft)
24.07.2012 17:50 24,8 C 53 % 0,0 l/m 1,9 km/h (1 Bft) SO 135 14,6 C 31,2 C 0,0 km/h (0 Bft)
24.07.2012 17:55 24,6 C 53 % 0,0 l/m 2,3 km/h (1 Bft) N-NW 337 14,4 C 31,2 C 2,7 km/h (1 Bft)
24.07.2012 18:00 24,5 C 54 % 0,0 l/m 1,8 km/h (1 Bft) N-NW 337 14,6 C 30,9 C 0,0 km/h (0 Bft)
24.07.2012 18:05 24,5 C 56 % 0,0 l/m 1,6 km/h (1 Bft) S 180 15,1 C 31,2 C 0,0 km/h (0 Bft)
24.07.2012 18:10 24,6 C 55 % 0,0 l/m 1,4 km/h (1 Bft) NO 45 14,9 C 31,2 C 0,0 km/h (0 Bft)
24.07.2012 18:15 24,7 C 54 % 0,0 l/m 1,8 km/h (1 Bft) SO 135 14,8 C 31,0 C 2,4 km/h (1 Bft)
24.07.2012 18:20 24,8 C 56 % 0,0 l/m 2,3 km/h (1 Bft) S 180 15,4 C 30,9 C 2,9 km/h (1 Bft)
24.07.2012 18:25 24,9 C 57 % 0,0 l/m 3,2 km/h (1 Bft) S 180 15,8 C 30,5 C 5,8 km/h (2 Bft)
24.07.2012 18:30 24,9 C 54 % 0,0 l/m 3,1 km/h (1 Bft) S 180 14,9 C 30,2 C 2,4 km/h (1 Bft)
24.07.2012 18:35 24,9 C 55 % 0,0 l/m 1,9 km/h (1 Bft) W 270 15,2 C 30,4 C 2,3 km/h (1 Bft)
24.07.2012 18:40 24,9 C 55 % 0,0 l/m 1,3 km/h (1 Bft) S 180 15,2 C 30,6 C 2,7 km/h (1 Bft)
24.07.2012 18:45 24,6 C 55 % 0,0 l/m 0,8 km/h (0 Bft) NW 315 14,9 C 30,9 C 2,1 km/h (1 Bft)
24.07.2012 18:50 24,8 C 55 % 0,0 l/m 1,6 km/h (1 Bft) S-SO 157 15,1 C 30,8 C 4,8 km/h (1 Bft)
24.07.2012 18:55 24,8 C 54 % 0,0 l/m 2,9 km/h (1 Bft) S 180 14,8 C 30,1 C 2,9 km/h (1 Bft)
24.07.2012 19:00 24,5 C 54 % 0,0 l/m 3,2 km/h (1 Bft) S-SW 202 14,6 C 29,8 C 3,5 km/h (1 Bft)
24.07.2012 19:05 24,2 C 56 % 0,0 l/m 2,1 km/h (1 Bft) N-NW 337 14,9 C 29,6 C 2,3 km/h (1 Bft)
24.07.2012 19:10 24,1 C 56 % 0,0 l/m 1,3 km/h (1 Bft) N 360 14,8 C 29,6 C 0,0 km/h (0 Bft)
24.07.2012 19:15 24,0 C 56 % 0,0 l/m 0,5 km/h (0 Bft) NW 315 14,7 C 29,9 C 1,9 km/h (1 Bft)
24.07.2012 19:20 23,9 C 57 % 0,0 l/m 0,2 km/h (0 Bft) N 360 14,9 C 29,9 C 0,0 km/h (0 Bft)
24.07.2012 19:25 23,7 C 57 % 0,0 l/m 0,2 km/h (0 Bft) O-NO 67 14,7 C 29,9 C 0,0 km/h (0 Bft)
24.07.2012 19:30 23,7 C 58 % 0,0 l/m 0,3 km/h (0 Bft) S 180 14,9 C 29,8 C 3,1 km/h (1 Bft)
24.07.2012 19:35 23,5 C 58 % 0,0 l/m 0,5 km/h (0 Bft) S 180 14,7 C 29,3 C 0,0 km/h (0 Bft)
24.07.2012 19:40 23,6 C 58 % 0,0 l/m 0,5 km/h (0 Bft) NO 45 14,8 C 29,2 C 0,0 km/h (0 Bft)
24.07.2012 19:45 23,3 C 60 % 0,0 l/m 0,0 km/h (0 Bft) N-NO 22 15,1 C 28,9 C 0,0 km/h (0 Bft)
24.07.2012 19:50 23,2 C 61 % 0,0 l/m 0,0 km/h (0 Bft) NO 45 15,3 C 28,8 C 0,0 km/h (0 Bft)
24.07.2012 19:55 22,9 C 63 % 0,0 l/m 0,0 km/h (0 Bft) NO 45 15,5 C 28,3 C 0,0 km/h (0 Bft)
24.07.2012 20:00 22,8 C 65 % 0,0 l/m 0,0 km/h (0 Bft) N-NW 337 15,9 C 27,9 C 0,0 km/h (0 Bft)
24.07.2012 20:05 22,5 C 66 % 0,0 l/m 0,0 km/h (0 Bft) N-NO 22 15,8 C 27,1 C 0,0 km/h (0 Bft)
24.07.2012 20:10 22,3 C 67 % 0,0 l/m 0,0 km/h (0 Bft) O-NO 67 15,9 C 26,5 C 0,0 km/h (0 Bft)
24.07.2012 20:15 21,9 C 68 % 0,0 l/m 0,0 km/h (0 Bft) N-NO 22 15,7 C 25,5 C 0,0 km/h (0 Bft)
24.07.2012 20:20 21,8 C 69 % 0,0 l/m 0,0 km/h (0 Bft) W-NW 292 15,9 C 24,7 C 0,0 km/h (0 Bft)
24.07.2012 20:25 21,5 C 69 % 0,0 l/m 0,0 km/h (0 Bft) N-NO 22 15,6 C 24,0 C 0,0 km/h (0 Bft)
24.07.2012 20:30 21,3 C 69 % 0,0 l/m 0,0 km/h (0 Bft) N-NO 22 15,4 C 23,4 C 0,0 km/h (0 Bft)
24.07.2012 20:35 20,9 C 70 % 0,0 l/m 0,0 km/h (0 Bft) NW 315 15,2 C 22,5 C 0,0 km/h (0 Bft)
24.07.2012 20:40 20,6 C 72 % 0,0 l/m 0,0 km/h (0 Bft) NO 45 15,4 C 22,0 C 1,8 km/h (1 Bft)
24.07.2012 20:45 20,3 C 72 % 0,0 l/m 0,2 km/h (0 Bft) N 360 15,1 C 21,3 C 0,0 km/h (0 Bft)
24.07.2012 20:50 20,0 C 73 % 0,0 l/m 0,2 km/h (0 Bft) N 360 15,0 C 20,9 C 0,0 km/h (0 Bft)
24.07.2012 20:55 19,6 C 74 % 0,0 l/m 0,0 km/h (0 Bft) O 90 14,8 C 20,2 C 0,0 km/h (0 Bft)
24.07.2012 21:00 19,3 C 75 % 0,0 l/m 0,2 km/h (0 Bft) O 90 14,8 C 19,8 C 1,8 km/h (1 Bft)
24.07.2012 21:05 19,2 C 76 % 0,0 l/m 0,3 km/h (0 Bft) N-NO 22 14,9 C 19,4 C 1,8 km/h (1 Bft)
24.07.2012 21:10 19,3 C 76 % 0,0 l/m 0,5 km/h (0 Bft) O 90 15,0 C 19,2 C 0,0 km/h (0 Bft)
24.07.2012 21:15 19,0 C 76 % 0,0 l/m 0,8 km/h (0 Bft) NO 45 14,7 C 19,0 C 0,0 km/h (0 Bft)
24.07.2012 21:20 18,8 C 77 % 0,0 l/m 0,8 km/h (0 Bft) N-NO 22 14,7 C 18,8 C 1,6 km/h (1 Bft)
24.07.2012 21:25 18,9 C 78 % 0,0 l/m 0,6 km/h (0 Bft) N-NO 22 15,0 C 18,6 C 0,0 km/h (0 Bft)
24.07.2012 21:30 18,7 C 77 % 0,0 l/m 0,5 km/h (0 Bft) NO 45 14,6 C 18,6 C 0,0 km/h (0 Bft)
24.07.2012 21:35 18,9 C 77 % 0,0 l/m 0,3 km/h (0 Bft) NO 45 14,8 C 18,6 C 0,0 km/h (0 Bft)
24.07.2012 21:40 19,0 C 76 % 0,0 l/m 0,0 km/h (0 Bft) N 360 14,7 C 18,6 C 0,0 km/h (0 Bft)
24.07.2012 21:45 18,9 C 77 % 0,0 l/m 0,5 km/h (0 Bft) N-NO 22 14,8 C 18,7 C 2,6 km/h (1 Bft)
24.07.2012 21:50 18,7 C 77 % 0,0 l/m 0,8 km/h (0 Bft) N-NO 22 14,6 C 18,6 C 1,9 km/h (1 Bft)
24.07.2012 21:55 18,4 C 78 % 0,0 l/m 1,3 km/h (1 Bft) NO 45 14,5 C 18,5 C 3,7 km/h (1 Bft)
24.07.2012 22:00 18,3 C 78 % 0,0 l/m 1,3 km/h (1 Bft) N-NO 22 14,4 C 18,4 C 0,0 km/h (0 Bft)
24.07.2012 22:05 18,1 C 80 % 0,0 l/m 1,4 km/h (1 Bft) N-NO 22 14,6 C 18,1 C 0,0 km/h (0 Bft)
24.07.2012 22:10 18,0 C 80 % 0,0 l/m 1,0 km/h (0 Bft) N-NW 337 14,5 C 18,0 C 1,6 km/h (1 Bft)
24.07.2012 22:15 17,8 C 80 % 0,0 l/m 0,8 km/h (0 Bft) NO 45 14,3 C 17,8 C 2,9 km/h (1 Bft)
24.07.2012 22:20 17,9 C 81 % 0,0 l/m 0,8 km/h (0 Bft) NO 45 14,6 C 17,7 C 0,0 km/h (0 Bft)
24.07.2012 22:25 17,8 C 81 % 0,0 l/m 0,3 km/h (0 Bft) N-NO 22 14,5 C 17,6 C 0,0 km/h (0 Bft)
24.07.2012 22:30 17,7 C 81 % 0,0 l/m 0,2 km/h (0 Bft) N 360 14,4 C 17,6 C 1,8 km/h (1 Bft)
24.07.2012 22:35 17,7 C 81 % 0,0 l/m 0,2 km/h (0 Bft) N-NO 22 14,4 C 17,4 C 0,0 km/h (0 Bft)
24.07.2012 22:40 17,4 C 81 % 0,0 l/m 0,3 km/h (0 Bft) N 360 14,1 C 17,4 C 0,0 km/h (0 Bft)
24.07.2012 22:45 17,4 C 81 % 0,0 l/m 0,5 km/h (0 Bft) N-NO 22 14,1 C 17,2 C 0,0 km/h (0 Bft)
24.07.2012 22:50 17,3 C 81 % 0,0 l/m 0,6 km/h (0 Bft) N 360 14,0 C 17,2 C 1,8 km/h (1 Bft)
24.07.2012 22:55 17,3 C 81 % 0,0 l/m 0,6 km/h (0 Bft) NO 45 14,0 C 17,1 C 0,0 km/h (0 Bft)
24.07.2012 23:00 16,9 C 81 % 0,0 l/m 0,5 km/h (0 Bft) NO 45 13,6 C 17,0 C 0,0 km/h (0 Bft)
24.07.2012 23:05 16,7 C 81 % 0,0 l/m 0,0 km/h (0 Bft) NO 45 13,4 C 16,7 C 0,0 km/h (0 Bft)
24.07.2012 23:10 16,6 C 82 % 0,0 l/m 0,0 km/h (0 Bft) N 360 13,5 C 16,5 C 0,0 km/h (0 Bft)
24.07.2012 23:15 16,5 C 82 % 0,0 l/m 0,0 km/h (0 Bft) N 360 13,4 C 16,3 C 0,0 km/h (0 Bft)
24.07.2012 23:20 16,3 C 82 % 0,0 l/m 0,0 km/h (0 Bft) NO 45 13,2 C 16,2 C 0,0 km/h (0 Bft)
24.07.2012 23:25 16,3 C 82 % 0,0 l/m 0,0 km/h (0 Bft) N 360 13,2 C 15,9 C 0,0 km/h (0 Bft)
24.07.2012 23:30 16,3 C 83 % 0,0 l/m 0,0 km/h (0 Bft) N 360 13,4 C 15,9 C 0,0 km/h (0 Bft)
24.07.2012 23:35 16,2 C 83 % 0,0 l/m 0,3 km/h (0 Bft) S-SO 157 13,3 C 15,9 C 0,0 km/h (0 Bft)
24.07.2012 23:40 16,2 C 83 % 0,0 l/m 0,3 km/h (0 Bft) N-NO 22 13,3 C 15,9 C 0,0 km/h (0 Bft)
24.07.2012 23:45 15,9 C 85 % 0,0 l/m 0,0 km/h (0 Bft) N 360 13,4 C 15,8 C 0,0 km/h (0 Bft)
24.07.2012 23:50 15,8 C 85 % 0,0 l/m 0,0 km/h (0 Bft) N-NO 22 13,3 C 15,7 C 0,0 km/h (0 Bft)
24.07.2012 23:55 15,7 C 85 % 0,0 l/m 0,0 km/h (0 Bft) N 360 13,2 C 15,6 C 0,0 km/h (0 Bft)
_ Min-Zeit 05:00 12:20 - 23:55 - - 03:35 05:10 23:55
Minimum _ 7,3 C 40 % - 0,0 km/h (0 Bft) - - 6,1 C 7,2 C 0,0 km/h (0 Bft)
_ Max-Zeit 15:30 06:40 23:55 14:50 - - 20:10 17:35 15:00
Maximum _ 27,8 C 93 % 0,0 l/m 5,5 km/h
S-SW (1 Bft)
- - 15,9 C 31,5 C 12,2 km/h
S (2 Bft)
Durchschnitt _ 18,7 C 67 % #0,0 l/m 1,3 km/h (1 Bft) S - 11,9 C 20,5 C 1,8 km/h (1 Bft)